Time;durP1;ratioP1;P1;durP2;ratioP2;P2;SDS_P1;SDS_P2;PMS_P1;PMS_P2;Temp;Humidity;BMP_temperature;BMP_pressure;BME280_temperature;BME280_humidity;BME280_pressure;Samples;Min_cycle;Max_cycle;Signal;HPM_P1;HPM_P2
2023/01/25 00:02:13;;;;;;;19.77;12.23;;;3.00;99.90;;;;;;5007681;28;20218;-63
2023/01/25 00:04:38;;;;;;;16.80;11.53;;;3.00;99.90;;;;;;5000952;28;20234;-62
2023/01/25 00:07:04;;;;;;;16.43;11.70;;;3.00;99.90;;;;;;5007120;28;20946;-63
2023/01/25 00:09:29;;;;;;;21.73;15.07;;;3.00;99.90;;;;;;4960254;28;20230;-63
2023/01/25 00:11:56;;;;;;;17.60;12.97;;;3.10;99.90;;;;;;5016445;28;20208;-62
2023/01/25 00:14:22;;;;;;;18.47;13.70;;;3.10;99.90;;;;;;5009597;28;20742;-57
2023/01/25 00:16:48;;;;;;;16.70;12.50;;;3.10;99.90;;;;;;5010887;28;20316;-62
2023/01/25 00:19:13;;;;;;;20.53;12.90;;;3.10;99.90;;;;;;5014738;28;20215;-69
2023/01/25 00:21:39;;;;;;;20.50;13.30;;;3.20;99.90;;;;;;5006194;28;20710;-56
2023/01/25 00:24:06;;;;;;;17.43;13.70;;;3.50;99.90;;;;;;5004205;28;20266;-55
2023/01/25 00:26:33;;;;;;;18.30;14.13;;;3.80;99.90;;;;;;5012002;28;20429;-54
2023/01/25 00:28:59;;;;;;;22.10;15.43;;;4.10;99.90;;;;;;5015046;28;20703;-54
2023/01/25 00:31:46;;;;;;;19.27;13.50;;;4.30;99.90;;;;;;5013654;28;20204;-54
2023/01/25 00:34:23;;;;;;;23.93;15.80;;;4.30;99.90;;;;;;5015054;28;20241;-56
2023/01/25 00:36:53;;;;;;;17.03;13.20;;;4.30;99.90;;;;;;5009280;28;20208;-62
2023/01/25 00:39:19;;;;;;;18.67;12.50;;;4.30;99.90;;;;;;5012828;28;20666;-56
2023/01/25 00:41:44;;;;;;;19.37;13.43;;;4.10;99.90;;;;;;5010574;28;20281;-56
2023/01/25 00:44:10;;;;;;;18.37;12.57;;;3.90;99.90;;;;;;5010317;28;20192;-55
2023/01/25 00:46:35;;;;;;;18.60;13.57;;;3.80;99.90;;;;;;5008289;28;20223;-56
2023/01/25 00:49:01;;;;;;;19.30;14.30;;;3.70;99.90;;;;;;5006442;28;20234;-58
2023/01/25 00:51:26;;;;;;;20.47;11.90;;;3.70;99.90;;;;;;5011880;28;20213;-57
2023/01/25 00:53:52;;;;;;;17.70;12.87;;;3.60;99.90;;;;;;5007864;28;20207;-57
2023/01/25 00:56:18;;;;;;;15.93;11.50;;;3.50;99.90;;;;;;5011200;28;20208;-78
2023/01/25 00:58:43;;;;;;;23.37;15.50;;;3.50;99.90;;;;;;5012445;28;20206;-56
2023/01/25 01:01:10;;;;;;;20.63;13.83;;;3.70;99.90;;;;;;5003252;28;20295;-55
2023/01/25 01:03:35;;;;;;;17.13;13.43;;;3.40;99.90;;;;;;5006642;28;20207;-55
2023/01/25 01:06:04;;;;;;;19.90;15.53;;;3.10;99.90;;;;;;5013670;28;20187;-55
2023/01/25 01:08:33;;;;;;;19.90;13.90;;;3.00;99.90;;;;;;5008484;28;20199;-55
2023/01/25 01:11:00;;;;;;;20.23;13.03;;;3.10;99.90;;;;;;5006687;28;20776;-55
2023/01/25 01:13:26;;;;;;;17.17;13.33;;;3.00;99.90;;;;;;5006077;28;20273;-55
2023/01/25 01:15:51;;;;;;;21.30;13.53;;;2.80;99.90;;;;;;5008371;28;20211;-55
2023/01/25 01:18:17;;;;;;;21.43;14.17;;;2.60;99.90;;;;;;5002132;28;20752;-54
2023/01/25 01:20:51;;;;;;;21.80;14.03;;;2.60;99.90;;;;;;5004818;28;20213;-55
2023/01/25 01:23:17;;;;;;;21.30;14.23;;;2.80;99.90;;;;;;5002225;28;20570;-55
2023/01/25 01:25:43;;;;;;;20.93;13.60;;;2.80;99.90;;;;;;5004606;28;20237;-55
2023/01/25 01:28:08;;;;;;;20.33;15.73;;;3.00;99.90;;;;;;4991092;28;20767;-54
2023/01/25 01:30:35;;;;;;;19.03;14.30;;;3.00;99.90;;;;;;5008411;28;20205;-54
2023/01/25 01:33:01;;;;;;;20.33;15.13;;;2.70;99.90;;;;;;5007436;28;20210;-53
2023/01/25 01:35:28;;;;;;;21.33;13.03;;;2.50;99.90;;;;;;5005277;28;20761;-55
2023/01/25 01:37:53;;;;;;;19.37;12.70;;;2.90;99.90;;;;;;5006578;28;20766;-55
2023/01/25 01:40:19;;;;;;;20.93;12.90;;;2.80;99.90;;;;;;5012178;28;20310;-55
2023/01/25 01:43:05;;;;;;;22.00;12.63;;;2.60;99.90;;;;;;5010044;28;20640;-55
2023/01/25 01:46:04;;;;;;;18.80;13.47;;;2.60;99.90;;;;;;5007407;28;21014;-56
2023/01/25 01:48:40;;;;;;;18.43;13.33;;;2.60;99.90;;;;;;4984820;28;20774;-61
2023/01/25 01:51:14;;;;;;;18.90;13.57;;;2.50;99.90;;;;;;5004780;28;20205;-62
2023/01/25 01:53:44;;;;;;;21.67;13.93;;;2.50;99.90;;;;;;5005764;28;20202;-61
2023/01/25 01:56:13;;;;;;;20.50;13.70;;;2.60;99.90;;;;;;5011161;28;20236;-62
2023/01/25 01:58:41;;;;;;;20.57;14.20;;;2.60;99.90;;;;;;5014668;28;20269;-62
2023/01/25 02:01:06;;;;;;;19.10;12.50;;;2.70;99.90;;;;;;5009727;28;20254;-62
2023/01/25 02:03:32;;;;;;;20.93;12.90;;;2.70;99.90;;;;;;5006275;28;20242;-61
2023/01/25 02:06:27;;;;;;;22.60;14.77;;;2.50;99.90;;;;;;5005568;28;20201;-61
2023/01/25 02:08:53;;;;;;;19.20;11.73;;;2.60;99.90;;;;;;5007947;28;20559;-62
2023/01/25 02:11:20;;;;;;;16.67;12.30;;;2.50;99.90;;;;;;5011557;28;20625;-62
2023/01/25 02:13:46;;;;;;;16.13;12.77;;;2.50;99.90;;;;;;5011528;28;20235;-63
2023/01/25 02:16:17;;;;;;;20.00;13.97;;;2.50;99.90;;;;;;5005500;28;20563;-63
2023/01/25 02:18:42;;;;;;;16.83;12.43;;;2.50;99.90;;;;;;5006672;28;20218;-63
2023/01/25 02:21:09;;;;;;;18.33;12.63;;;2.50;99.90;;;;;;4997354;28;20314;-62
2023/01/25 02:23:50;;;;;;;18.87;12.97;;;2.60;99.90;;;;;;5001715;28;20203;-62
2023/01/25 02:26:18;;;;;;;16.70;11.73;;;2.60;99.90;;;;;;5013214;28;20694;-62
2023/01/25 02:28:51;;;;;;;19.73;13.50;;;2.60;99.90;;;;;;5001692;28;20201;-62
2023/01/25 02:31:17;;;;;;;17.90;12.60;;;2.80;99.90;;;;;;5014500;28;20569;-62
2023/01/25 02:33:43;;;;;;;20.13;14.23;;;2.70;99.90;;;;;;5009954;28;20792;-63
2023/01/25 02:36:08;;;;;;;19.63;11.83;;;2.50;99.90;;;;;;5009388;28;20222;-62
2023/01/25 02:38:41;;;;;;;20.73;13.50;;;2.40;99.90;;;;;;5011044;28;20232;-64
2023/01/25 02:41:16;;;;;;;23.43;15.63;;;2.70;99.90;;;;;;5013331;28;20284;-63
2023/01/25 02:43:41;;;;;;;21.17;13.57;;;2.90;99.90;;;;;;5011654;28;20211;-63
2023/01/25 02:46:32;;;;;;;18.60;12.30;;;3.10;99.90;;;;;;5011501;28;20691;-63
2023/01/25 02:48:59;;;;;;;24.30;14.47;;;3.00;99.90;;;;;;5010224;28;20251;-63
2023/01/25 02:51:27;;;;;;;20.23;12.90;;;2.70;99.90;;;;;;5009408;28;20200;-63
2023/01/25 02:53:52;;;;;;;19.47;14.03;;;2.60;99.90;;;;;;5013535;28;20203;-63
2023/01/25 02:56:18;;;;;;;21.10;13.17;;;2.70;99.90;;;;;;5013416;28;20256;-62
2023/01/25 02:58:44;;;;;;;20.57;12.87;;;3.10;99.90;;;;;;5019640;28;20276;-62
2023/01/25 03:01:11;;;;;;;22.03;13.53;;;3.20;99.90;;;;;;5016892;28;20222;-63
2023/01/25 03:03:36;;;;;;;22.70;13.40;;;3.00;99.90;;;;;;5005025;28;20261;-63
2023/01/25 03:06:02;;;;;;;17.10;14.07;;;3.00;99.90;;;;;;5006119;28;20208;-63
2023/01/25 03:08:27;;;;;;;22.23;13.47;;;2.80;99.90;;;;;;5002827;28;20203;-62
2023/01/25 03:10:58;;;;;;;19.63;12.63;;;2.90;99.90;;;;;;5010966;28;20214;-63
2023/01/25 03:13:24;;;;;;;20.43;13.90;;;2.70;99.90;;;;;;5008371;28;20212;-63
2023/01/25 03:15:50;;;;;;;20.90;13.30;;;2.90;99.90;;;;;;5001658;28;20207;-62
2023/01/25 03:18:16;;;;;;;19.57;13.90;;;3.00;99.90;;;;;;5001504;28;20257;-63
2023/01/25 03:20:41;;;;;;;22.43;14.27;;;2.90;99.90;;;;;;5007788;28;20225;-63
2023/01/25 03:23:07;;;;;;;17.10;12.60;;;2.70;99.90;;;;;;5008398;28;20205;-63
2023/01/25 03:25:32;;;;;;;19.20;15.13;;;2.60;99.90;;;;;;5007057;28;20250;-63
2023/01/25 03:27:58;;;;;;;16.17;11.83;;;2.70;99.90;;;;;;5009931;28;20217;-62
2023/01/25 03:30:23;;;;;;;20.70;14.00;;;2.60;99.90;;;;;;5008481;28;20234;-62
2023/01/25 03:32:49;;;;;;;18.93;12.47;;;2.90;99.90;;;;;;5013452;28;20304;-63
2023/01/25 03:35:15;;;;;;;19.63;13.37;;;3.00;99.90;;;;;;5005110;28;20248;-64
2023/01/25 03:37:40;;;;;;;20.90;14.27;;;2.80;99.90;;;;;;5000334;28;20211;-63
2023/01/25 03:40:06;;;;;;;25.27;15.53;;;2.50;99.90;;;;;;5007781;28;20207;-63
2023/01/25 03:42:32;;;;;;;17.97;12.57;;;2.70;99.90;;;;;;5009453;28;20200;-63
2023/01/25 03:44:57;;;;;;;20.77;13.53;;;2.70;99.90;;;;;;5009862;28;20565;-63
2023/01/25 03:47:23;;;;;;;20.57;13.77;;;2.80;99.90;;;;;;5007014;28;20211;-64
2023/01/25 03:49:48;;;;;;;19.20;12.77;;;2.90;99.90;;;;;;5009304;28;20676;-63
2023/01/25 03:52:13;;;;;;;20.17;14.23;;;2.90;99.90;;;;;;5009449;28;20203;-63
2023/01/25 03:54:39;;;;;;;17.60;13.93;;;2.80;99.90;;;;;;5008831;28;20298;-63
2023/01/25 03:57:04;;;;;;;21.27;14.63;;;2.60;99.90;;;;;;5009118;28;20214;-63
2023/01/25 03:59:30;;;;;;;20.07;13.87;;;2.60;99.90;;;;;;5007534;28;20546;-63
2023/01/25 04:01:55;;;;;;;22.90;15.50;;;2.50;99.90;;;;;;5004116;28;20707;-62
2023/01/25 04:04:21;;;;;;;19.27;13.73;;;2.50;99.90;;;;;;5000082;28;20634;-63
2023/01/25 04:06:46;;;;;;;22.00;14.70;;;2.50;99.90;;;;;;5001414;28;20206;-63
2023/01/25 04:09:13;;;;;;;19.17;15.20;;;2.50;99.90;;;;;;5007996;28;20937;-63
2023/01/25 04:11:39;;;;;;;20.80;14.03;;;2.60;99.90;;;;;;5008132;28;20210;-62
2023/01/25 04:14:05;;;;;;;21.27;14.20;;;2.60;99.90;;;;;;5006249;28;20203;-63
2023/01/25 04:16:30;;;;;;;17.90;13.73;;;2.50;99.90;;;;;;5005450;28;20591;-63
2023/01/25 04:18:56;;;;;;;19.83;14.90;;;2.50;99.90;;;;;;4999239;28;20211;-62
2023/01/25 04:21:22;;;;;;;20.80;13.87;;;2.60;99.90;;;;;;4999629;28;20246;-63
2023/01/25 04:23:47;;;;;;;26.80;16.57;;;2.70;99.90;;;;;;4999942;28;20632;-63
2023/01/25 04:26:13;;;;;;;18.93;14.13;;;3.00;99.90;;;;;;4997891;28;20544;-62
2023/01/25 04:28:39;;;;;;;21.70;15.57;;;2.80;99.90;;;;;;4999147;28;20524;-61
2023/01/25 04:31:05;;;;;;;24.20;14.13;;;2.80;99.90;;;;;;5009165;28;20230;-63
2023/01/25 04:33:31;;;;;;;20.10;15.10;;;2.70;99.90;;;;;;5001612;28;20645;-62
2023/01/25 04:35:57;;;;;;;17.03;13.50;;;2.60;99.90;;;;;;5001374;28;20202;-63
2023/01/25 04:38:23;;;;;;;22.13;14.67;;;2.50;99.90;;;;;;5008612;28;20197;-62
2023/01/25 04:40:50;;;;;;;20.50;14.57;;;2.50;99.90;;;;;;4997197;28;20215;-62
2023/01/25 04:43:17;;;;;;;20.67;15.13;;;2.50;99.90;;;;;;4999471;28;20227;-63
2023/01/25 04:45:43;;;;;;;18.30;14.10;;;2.60;99.90;;;;;;5001301;28;20642;-60
2023/01/25 04:48:10;;;;;;;26.87;14.80;;;2.70;99.90;;;;;;5011581;28;20203;-62
2023/01/25 04:50:37;;;;;;;19.17;13.50;;;2.60;99.90;;;;;;5005394;28;20293;-63
2023/01/25 04:53:02;;;;;;;21.00;13.60;;;2.70;99.90;;;;;;5007403;28;20207;-63
2023/01/25 04:55:28;;;;;;;21.93;16.37;;;2.70;99.90;;;;;;5008768;28;20218;-63
2023/01/25 04:57:54;;;;;;;20.30;13.93;;;2.80;99.90;;;;;;5008166;28;20219;-63
2023/01/25 05:00:20;;;;;;;29.93;20.10;;;2.90;99.90;;;;;;5008745;28;20682;-62
2023/01/25 05:02:45;;;;;;;21.90;15.53;;;2.80;99.90;;;;;;5005593;28;20214;-63
2023/01/25 05:05:11;;;;;;;19.93;13.17;;;2.80;99.90;;;;;;5007931;28;20555;-63
2023/01/25 05:07:38;;;;;;;17.70;13.87;;;2.70;99.90;;;;;;5007504;28;20207;-62
2023/01/25 05:10:04;;;;;;;31.27;20.27;;;2.70;99.90;;;;;;5007551;28;20341;-61
2023/01/25 05:12:29;;;;;;;23.83;17.13;;;2.90;99.90;;;;;;5003485;28;20200;-61
2023/01/25 05:14:55;;;;;;;19.67;13.47;;;2.90;99.90;;;;;;4998001;28;20633;-62
2023/01/25 05:17:20;;;;;;;36.53;21.47;;;2.90;99.90;;;;;;4996760;28;20196;-62
2023/01/25 05:19:46;;;;;;;28.93;20.70;;;3.00;99.90;;;;;;4998617;28;20691;-63
2023/01/25 05:22:13;;;;;;;17.30;13.20;;;3.00;99.90;;;;;;5000100;28;20724;-62
2023/01/25 05:24:43;;;;;;;16.20;12.83;;;3.00;99.90;;;;;;5003873;28;20216;-62
2023/01/25 05:27:11;;;;;;;20.43;13.93;;;3.00;99.90;;;;;;5005155;28;20278;-63
2023/01/25 05:29:39;;;;;;;30.70;17.63;;;2.90;99.90;;;;;;5004326;28;20203;-63
2023/01/25 05:32:06;;;;;;;21.20;15.50;;;2.90;99.90;;;;;;5008176;28;20201;-63
2023/01/25 05:34:32;;;;;;;42.17;28.23;;;3.10;99.90;;;;;;5008925;28;20223;-62
2023/01/25 05:36:58;;;;;;;35.73;22.37;;;3.30;99.90;;;;;;5008616;28;20206;-63
2023/01/25 05:39:24;;;;;;;16.53;12.43;;;3.30;99.90;;;;;;5007709;28;20207;-62
2023/01/25 05:41:50;;;;;;;13.20;10.17;;;3.30;99.90;;;;;;5006599;28;20325;-61
2023/01/25 05:44:16;;;;;;;17.93;12.00;;;3.20;99.90;;;;;;5007361;28;20226;-62
2023/01/25 05:46:42;;;;;;;12.87;10.20;;;3.10;99.90;;;;;;4997195;28;20945;-61
2023/01/25 05:49:08;;;;;;;17.00;11.13;;;3.00;99.90;;;;;;5006828;28;20305;-61
2023/01/25 05:51:34;;;;;;;13.87;9.80;;;3.00;99.90;;;;;;5007214;28;20211;-60
2023/01/25 05:54:00;;;;;;;18.50;12.43;;;3.00;99.90;;;;;;5006044;28;20566;-62
2023/01/25 05:56:26;;;;;;;12.60;9.83;;;2.90;99.90;;;;;;5006433;28;20203;-62
2023/01/25 05:58:53;;;;;;;12.53;10.10;;;2.90;99.90;;;;;;5007346;28;20628;-59
2023/01/25 06:01:18;;;;;;;13.63;10.03;;;2.80;99.90;;;;;;5006452;28;20239;-62
2023/01/25 06:03:45;;;;;;;16.07;11.33;;;2.70;99.90;;;;;;5005959;28;20684;-61
2023/01/25 06:06:10;;;;;;;20.60;14.17;;;2.70;99.90;;;;;;5006039;28;20537;-62
2023/01/25 06:08:35;;;;;;;13.50;10.50;;;2.80;99.90;;;;;;5006538;28;20195;-63
2023/01/25 06:11:08;;;;;;;15.47;11.97;;;2.80;99.90;;;;;;5006844;28;20293;-64
2023/01/25 06:13:34;;;;;;;13.93;12.00;;;2.70;99.90;;;;;;5007048;28;20294;-63
2023/01/25 06:15:59;;;;;;;15.63;11.13;;;2.80;99.90;;;;;;5006395;28;20317;-62
2023/01/25 06:18:25;;;;;;;12.67;9.63;;;2.80;99.90;;;;;;5003572;28;20196;-61
2023/01/25 06:20:51;;;;;;;17.07;10.17;;;2.70;99.90;;;;;;5007845;28;20216;-61
2023/01/25 06:23:16;;;;;;;17.73;11.57;;;2.70;99.90;;;;;;5005352;28;20299;-62
2023/01/25 06:25:42;;;;;;;19.27;12.03;;;2.70;99.90;;;;;;5007505;28;20701;-62
2023/01/25 06:28:08;;;;;;;17.07;12.30;;;2.70;99.90;;;;;;5007570;28;20199;-64
2023/01/25 06:30:34;;;;;;;16.23;12.23;;;2.70;99.90;;;;;;5004366;28;20213;-63
2023/01/25 06:33:00;;;;;;;21.00;14.03;;;2.70;99.90;;;;;;4987021;28;20229;-62
2023/01/25 06:35:26;;;;;;;15.83;12.00;;;2.70;99.90;;;;;;5006811;28;20203;-62
2023/01/25 06:37:56;;;;;;;30.67;19.80;;;2.60;99.90;;;;;;5004944;28;20284;-63
2023/01/25 06:40:21;;;;;;;19.20;13.03;;;2.70;99.90;;;;;;5003364;28;20204;-62
2023/01/25 06:42:46;;;;;;;29.33;19.10;;;2.80;99.90;;;;;;5005394;28;20229;-63
2023/01/25 06:45:12;;;;;;;17.33;12.47;;;2.90;99.90;;;;;;5002467;28;20243;-63
2023/01/25 06:47:38;;;;;;;15.90;10.60;;;2.90;99.90;;;;;;4999485;28;20572;-62
2023/01/25 06:50:04;;;;;;;14.97;11.20;;;2.80;99.90;;;;;;5006539;28;20219;-63
2023/01/25 06:52:30;;;;;;;15.53;11.60;;;2.80;99.90;;;;;;5004070;28;20200;-62
2023/01/25 06:54:56;;;;;;;16.73;12.23;;;2.70;99.90;;;;;;5003222;28;20210;-63
2023/01/25 06:57:22;;;;;;;16.37;10.90;;;2.60;99.90;;;;;;5005494;28;20281;-61
2023/01/25 06:59:48;;;;;;;16.63;12.23;;;2.60;99.90;;;;;;5005283;28;20223;-61
2023/01/25 07:02:14;;;;;;;15.40;10.67;;;2.60;99.90;;;;;;5006035;28;20329;-61
2023/01/25 07:04:40;;;;;;;16.50;11.77;;;2.60;99.90;;;;;;5005239;28;20231;-61
2023/01/25 07:07:09;;;;;;;12.83;10.57;;;2.60;99.90;;;;;;5004818;28;20657;-60
2023/01/25 07:09:35;;;;;;;19.70;11.27;;;2.60;99.90;;;;;;5008239;28;20733;-60
2023/01/25 07:12:03;;;;;;;15.77;9.60;;;2.70;99.90;;;;;;5010195;28;20207;-62
2023/01/25 07:14:29;;;;;;;15.47;9.37;;;2.60;99.90;;;;;;5010088;28;20211;-61
2023/01/25 07:16:55;;;;;;;13.77;10.93;;;2.60;99.90;;;;;;5007879;28;20629;-61
2023/01/25 07:19:20;;;;;;;13.20;9.30;;;2.50;99.90;;;;;;5000666;28;20200;-61
2023/01/25 07:21:46;;;;;;;14.80;10.97;;;2.50;99.90;;;;;;5010042;28;20346;-61
2023/01/25 07:24:14;;;;;;;19.73;12.90;;;2.50;99.90;;;;;;5002341;28;20204;-61
2023/01/25 07:26:40;;;;;;;15.80;10.53;;;2.50;99.90;;;;;;5009610;28;20252;-62
2023/01/25 07:29:05;;;;;;;14.87;10.90;;;2.60;99.90;;;;;;5010547;28;20195;-63
2023/01/25 07:31:31;;;;;;;18.93;11.60;;;2.60;99.90;;;;;;5009782;28;20313;-61
2023/01/25 07:33:57;;;;;;;19.50;11.27;;;2.50;99.90;;;;;;5009492;28;20610;-61
2023/01/25 07:36:23;;;;;;;19.53;11.00;;;2.50;99.90;;;;;;5008437;28;20826;-61
2023/01/25 07:38:53;;;;;;;12.73;9.03;;;2.50;99.90;;;;;;5006681;28;20257;-61
2023/01/25 07:41:19;;;;;;;12.70;10.63;;;2.50;99.90;;;;;;5000722;28;20229;-62
2023/01/25 07:43:44;;;;;;;15.50;10.73;;;2.40;99.90;;;;;;5001525;28;20203;-61
2023/01/25 07:46:12;;;;;;;12.50;9.87;;;2.40;99.90;;;;;;5011289;28;20204;-62
2023/01/25 07:48:39;;;;;;;11.30;9.33;;;2.40;99.90;;;;;;5000882;28;20204;-62
2023/01/25 07:51:22;;;;;;;17.57;10.90;;;2.40;99.90;;;;;;4999873;28;20301;-62
2023/01/25 07:53:55;;;;;;;12.97;9.37;;;2.50;99.90;;;;;;5000446;28;20209;-61
2023/01/25 07:56:25;;;;;;;17.77;10.90;;;2.50;99.90;;;;;;5001303;28;20204;-60
2023/01/25 07:58:53;;;;;;;16.93;11.40;;;2.50;99.90;;;;;;5010776;28;20214;-61
2023/01/25 08:01:20;;;;;;;16.23;11.13;;;2.50;99.90;;;;;;5008765;28;20231;-60
2023/01/25 08:03:46;;;;;;;15.73;11.60;;;2.50;99.90;;;;;;5006214;28;20212;-61
2023/01/25 08:06:12;;;;;;;16.27;11.23;;;2.50;99.90;;;;;;5007731;28;20267;-61
2023/01/25 08:08:41;;;;;;;14.33;10.57;;;2.60;99.90;;;;;;5008765;28;20291;-61
2023/01/25 08:11:16;;;;;;;13.00;9.77;;;2.70;99.90;;;;;;5002788;28;20371;-61
2023/01/25 08:13:48;;;;;;;17.27;11.67;;;2.60;99.90;;;;;;5001196;28;20215;-62
2023/01/25 08:16:19;;;;;;;14.30;9.80;;;2.50;99.90;;;;;;5001418;28;20211;-63
2023/01/25 08:18:53;;;;;;;15.87;10.50;;;2.40;99.90;;;;;;5008001;28;20565;-62
2023/01/25 08:21:18;;;;;;;15.43;9.83;;;2.40;99.90;;;;;;4999094;28;20233;-61
2023/01/25 08:23:44;;;;;;;16.97;10.77;;;2.40;99.90;;;;;;5003574;28;20208;-62
2023/01/25 08:26:12;;;;;;;16.40;12.27;;;2.40;99.90;;;;;;5010280;28;20230;-62
2023/01/25 08:28:38;;;;;;;15.97;11.47;;;2.30;99.90;;;;;;5007920;28;20241;-62
2023/01/25 08:31:06;;;;;;;15.93;11.83;;;2.40;99.90;;;;;;5005515;28;20231;-62
2023/01/25 08:33:31;;;;;;;18.53;11.83;;;2.30;99.90;;;;;;5011574;28;20205;-61
2023/01/25 08:35:57;;;;;;;13.77;11.07;;;2.30;99.90;;;;;;5006863;28;20650;-63
2023/01/25 08:38:23;;;;;;;17.77;12.57;;;2.30;99.90;;;;;;5009863;28;20202;-62
2023/01/25 08:40:48;;;;;;;14.40;10.33;;;2.30;99.90;;;;;;5007561;28;20581;-62
2023/01/25 08:43:14;;;;;;;14.97;11.73;;;2.40;99.90;;;;;;5006071;28;20230;-63
2023/01/25 08:45:39;;;;;;;16.10;11.73;;;2.40;99.90;;;;;;5008997;28;20309;-63
2023/01/25 08:48:05;;;;;;;15.80;11.30;;;2.40;99.90;;;;;;5012934;28;20202;-61
2023/01/25 08:50:31;;;;;;;19.67;12.00;;;2.40;99.90;;;;;;5008169;28;20208;-63
2023/01/25 08:52:57;;;;;;;13.27;10.13;;;2.40;99.90;;;;;;5004291;28;20206;-61
2023/01/25 08:55:22;;;;;;;15.00;10.93;;;2.40;99.90;;;;;;5010122;28;20215;-62
2023/01/25 08:57:48;;;;;;;16.07;12.07;;;2.40;99.90;;;;;;4997131;28;20607;-60
2023/01/25 09:00:14;;;;;;;19.23;12.43;;;2.40;99.90;;;;;;5010994;28;20216;-62
2023/01/25 09:02:39;;;;;;;17.57;12.83;;;2.50;99.90;;;;;;5009741;28;20210;-62
2023/01/25 09:05:05;;;;;;;20.07;14.60;;;2.50;99.90;;;;;;5002718;28;20283;-62
2023/01/25 09:07:34;;;;;;;18.77;14.27;;;2.40;99.90;;;;;;4998335;28;20224;-62
2023/01/25 09:10:00;;;;;;;21.93;13.63;;;2.40;99.90;;;;;;4996321;28;20303;-61
2023/01/25 09:12:25;;;;;;;15.90;11.10;;;2.40;99.90;;;;;;5007865;28;20569;-64
2023/01/25 09:14:51;;;;;;;18.20;12.47;;;2.40;99.90;;;;;;5004861;28;20258;-60
2023/01/25 09:17:16;;;;;;;18.23;12.30;;;2.50;99.90;;;;;;5008076;28;20212;-63
2023/01/25 09:19:42;;;;;;;19.67;12.73;;;2.40;99.90;;;;;;5006258;28;20204;-61
2023/01/25 09:22:07;;;;;;;18.77;12.77;;;2.50;99.90;;;;;;4999542;28;20232;-61
2023/01/25 09:24:33;;;;;;;24.13;14.53;;;2.50;99.90;;;;;;5001474;28;20290;-62
2023/01/25 09:26:59;;;;;;;17.20;12.53;;;2.50;99.90;;;;;;5006806;28;20251;-62
2023/01/25 09:29:24;;;;;;;20.73;12.67;;;2.40;99.90;;;;;;5006983;28;20233;-61
2023/01/25 09:31:51;;;;;;;19.73;11.77;;;2.40;99.90;;;;;;5010656;28;20349;-61
2023/01/25 09:34:16;;;;;;;17.90;12.13;;;2.30;99.90;;;;;;5009459;28;20566;-62
2023/01/25 09:36:42;;;;;;;17.03;10.97;;;2.30;99.90;;;;;;5008668;28;20708;-62
2023/01/25 09:39:11;;;;;;;15.30;11.10;;;2.30;99.90;;;;;;5004611;28;20203;-62
2023/01/25 09:42:14;;;;;;;21.07;14.40;;;2.30;99.90;;;;;;4999882;28;20762;-61
2023/01/25 09:44:58;;;;;;;20.77;14.67;;;2.30;99.90;;;;;;5004241;28;20188;-61
2023/01/25 09:47:59;;;;;;;22.00;14.13;;;2.40;99.90;;;;;;5004648;28;20257;-61
2023/01/25 09:50:35;;;;;;;21.83;14.17;;;2.40;99.90;;;;;;5005468;28;20675;-59
2023/01/25 09:53:21;;;;;;;25.70;13.80;;;2.30;99.90;;;;;;5000532;28;20638;-62
2023/01/25 09:55:53;;;;;;;18.97;13.80;;;2.40;99.90;;;;;;5008285;28;20199;-63
2023/01/25 09:58:25;;;;;;;20.50;12.30;;;2.40;99.90;;;;;;5011268;28;20217;-62
2023/01/25 10:01:03;;;;;;;18.40;11.73;;;2.40;99.90;;;;;;5010176;28;20221;-61
2023/01/25 10:03:58;;;;;;;18.67;12.03;;;2.40;99.90;;;;;;5004654;28;20635;-61
2023/01/25 10:06:35;;;;;;;22.47;13.30;;;2.30;99.90;;;;;;5003822;28;20200;-62
2023/01/25 10:09:16;;;;;;;18.73;13.43;;;2.20;99.90;;;;;;5007108;28;20201;-60
2023/01/25 10:11:41;;;;;;;25.03;15.50;;;2.20;99.90;;;;;;5010000;28;20199;-63
2023/01/25 10:14:16;;;;;;;19.83;14.50;;;2.20;99.90;;;;;;4988414;28;20559;-61
2023/01/25 10:16:56;;;;;;;18.83;14.67;;;2.30;99.90;;;;;;5004422;28;20204;-62
2023/01/25 10:19:35;;;;;;;21.93;13.53;;;2.30;99.90;;;;;;5004694;28;20653;-61
2023/01/25 10:22:12;;;;;;;24.97;14.70;;;2.40;99.90;;;;;;5003595;28;20228;-61
2023/01/25 10:24:49;;;;;;;23.50;15.10;;;2.50;99.90;;;;;;5000517;28;20248;-60
2023/01/25 10:27:29;;;;;;;25.40;18.00;;;2.40;99.90;;;;;;4999728;28;20198;-62
2023/01/25 10:29:58;;;;;;;34.00;20.53;;;2.40;99.90;;;;;;4998913;28;20463;-62
2023/01/25 10:32:32;;;;;;;25.53;14.53;;;2.50;99.90;;;;;;4996442;28;20261;-63
2023/01/25 10:35:11;;;;;;;20.83;14.23;;;2.60;99.90;;;;;;5009993;28;20681;-62
2023/01/25 10:37:37;;;;;;;23.87;14.70;;;2.60;99.90;;;;;;5005188;28;20207;-60
2023/01/25 10:40:15;;;;;;;22.10;13.43;;;2.60;99.90;;;;;;5003597;28;20204;-62
2023/01/25 10:42:57;;;;;;;26.67;14.73;;;2.50;99.90;;;;;;5004406;28;20218;-62
2023/01/25 10:45:22;;;;;;;17.73;12.47;;;2.40;99.90;;;;;;5008756;28;20208;-62
2023/01/25 10:47:56;;;;;;;20.87;12.43;;;2.40;99.90;;;;;;5010345;28;20207;-61
2023/01/25 10:50:42;;;;;;;19.23;12.40;;;2.40;99.90;;;;;;5011981;28;20203;-62
2023/01/25 10:53:21;;;;;;;19.27;12.73;;;2.30;99.90;;;;;;5007772;28;20206;-61
2023/01/25 10:55:58;;;;;;;19.97;11.87;;;2.30;99.90;;;;;;5004925;28;20796;-60
2023/01/25 10:58:38;;;;;;;22.10;12.97;;;2.30;99.90;;;;;;5010694;28;20203;-61
2023/01/25 11:01:06;;;;;;;24.67;14.57;;;2.30;99.90;;;;;;5013280;28;20658;-62
2023/01/25 11:03:36;;;;;;;24.10;14.77;;;2.40;99.90;;;;;;5012487;28;20642;-58
2023/01/25 11:06:02;;;;;;;22.63;15.27;;;2.40;99.90;;;;;;5001322;28;20211;-62
2023/01/25 11:08:30;;;;;;;26.57;16.40;;;2.40;99.90;;;;;;5009857;28;20200;-64
2023/01/25 11:10:57;;;;;;;22.13;15.13;;;2.40;99.90;;;;;;5010765;28;20573;-72
2023/01/25 11:13:32;;;;;;;25.70;16.00;;;2.50;99.90;;;;;;5010775;28;20769;-65
2023/01/25 11:16:03;;;;;;;22.20;14.53;;;2.50;99.90;;;;;;5014743;28;20337;-65
2023/01/25 11:18:34;;;;;;;36.40;23.53;;;2.50;99.90;;;;;;5006619;28;20691;-65
2023/01/25 11:21:17;;;;;;;23.17;15.63;;;2.50;99.90;;;;;;5001983;28;20363;-65
2023/01/25 11:23:56;;;;;;;25.37;16.13;;;2.50;99.90;;;;;;5003896;28;20307;-58
2023/01/25 11:26:21;;;;;;;24.17;15.10;;;2.60;99.90;;;;;;5013653;28;20239;-56
2023/01/25 11:28:50;;;;;;;25.57;17.33;;;2.60;99.90;;;;;;5009240;28;20374;-56
2023/01/25 11:31:21;;;;;;;29.93;17.13;;;2.50;99.90;;;;;;4998843;28;20319;-56
2023/01/25 11:33:47;;;;;;;25.70;16.97;;;2.50;99.90;;;;;;5009486;28;20612;-56
2023/01/25 11:36:18;;;;;;;25.10;16.67;;;2.60;99.90;;;;;;5011891;28;20294;-57
2023/01/25 11:39:22;;;;;;;25.53;16.67;;;2.70;99.90;;;;;;5011422;28;20213;-57
2023/01/25 11:41:53;;;;;;;27.47;18.33;;;2.70;99.90;;;;;;4958622;28;20314;-57
2023/01/25 11:45:03;;;;;;;24.37;16.43;;;2.80;99.90;;;;;;5004720;28;20286;-57
2023/01/25 11:47:48;;;;;;;22.10;17.13;;;2.80;99.90;;;;;;4959928;28;20207;-56
2023/01/25 11:50:41;;;;;;;25.10;16.10;;;2.60;99.90;;;;;;4999770;28;20211;-56
2023/01/25 11:53:22;;;;;;;27.17;16.17;;;2.50;99.90;;;;;;5003987;28;20227;-56
2023/01/25 11:56:33;;;;;;;24.93;17.70;;;2.40;99.90;;;;;;5005026;28;20200;-56
2023/01/25 11:59:21;;;;;;;35.47;19.73;;;2.40;99.90;;;;;;5015713;28;20206;-56
2023/01/25 12:02:07;;;;;;;26.70;16.33;;;2.30;99.90;;;;;;5015168;28;20219;-56
2023/01/25 12:04:57;;;;;;;40.90;26.30;;;2.30;99.90;;;;;;5013766;28;20203;-57
2023/01/25 12:07:49;;;;;;;33.80;19.40;;;2.40;99.90;;;;;;5007259;28;20244;-56
2023/01/25 12:10:33;;;;;;;27.53;18.37;;;2.50;99.90;;;;;;5010466;28;20226;-56
2023/01/25 12:13:13;;;;;;;30.73;17.87;;;2.30;99.90;;;;;;5009662;28;20284;-57
2023/01/25 12:15:57;;;;;;;32.17;19.17;;;2.30;99.90;;;;;;5008031;28;20207;-56
2023/01/25 12:18:58;;;;;;;28.87;19.07;;;2.20;99.90;;;;;;5010936;28;20203;-58
2023/01/25 12:21:50;;;;;;;28.33;18.60;;;2.20;99.90;;;;;;4999684;28;20316;-57
2023/01/25 12:24:33;;;;;;;30.43;17.80;;;2.40;99.90;;;;;;5010233;28;20215;-67
2023/01/25 12:27:31;;;;;;;30.30;17.83;;;2.50;99.90;;;;;;4997670;28;20296;-65
2023/01/25 12:30:11;;;;;;;23.90;17.37;;;2.50;99.90;;;;;;5011493;28;20203;-65
2023/01/25 12:32:43;;;;;;;26.60;17.07;;;2.50;99.90;;;;;;5007275;28;20673;-65
2023/01/25 12:35:39;;;;;;;26.50;17.20;;;2.50;99.90;;;;;;5006757;28;20703;-64
2023/01/25 12:38:14;;;;;;;29.27;19.07;;;2.50;99.90;;;;;;5005041;28;20230;-66
2023/01/25 12:41:12;;;;;;;32.60;21.07;;;2.40;99.90;;;;;;5008495;28;20648;-65
2023/01/25 12:43:47;;;;;;;30.47;17.27;;;2.40;99.90;;;;;;5009927;28;20200;-67
2023/01/25 12:46:20;;;;;;;31.93;17.83;;;2.30;99.90;;;;;;5001060;28;20210;-65
2023/01/25 12:48:51;;;;;;;38.27;22.63;;;2.20;99.90;;;;;;5009282;28;20226;-66
2023/01/25 12:51:20;;;;;;;34.83;20.23;;;2.30;99.90;;;;;;5013849;28;20223;-66
2023/01/25 12:53:47;;;;;;;34.83;19.67;;;2.30;99.90;;;;;;5010173;28;20467;-66